Accueil
METAR-TAF:

METAR-TAF

Aéroports :

Florennes, Belgique

Base aérienne de Florennes

latitude: 50-14N, longitude: 004-39E, altitude: 279 m

Observation

Le bulletin a été fait il y a 39 minutes, à 21:55 UTC
Vent 6 kt de est
Température 19°C
Humidité 52%
Pression 1018 hPa
Visibilité 10 km ou plus

METAR: EBFS 262155Z AUTO 10006KT 9999 NCD 19/09 Q1018 BLU

Heure: 00:34 (22:34 UTC)

Prévision

Le bulletin a été fait il y a 30 heures et 53 minutes, à 15:41 UTC
Prévision valable du 25 à 19 UTC au 26 à 07 UTC
Vent 8 kt de nord-est
Visibilité 10 km ou plus
Quelques nuages à une hauteur de 3000 ft

TAF: EBFS 251541Z 2519/2607 05008KT 9999 FEW030

Observations et prévisions météorologiques de plus de 4000 aéroports (messages METAR et TAF).

Les stations disponibles sont représentées par des disques jaunes et rouges sur la carte.

Passer la souris dessus pour voir le nom de la station.

Cliquer dessus pour voir les observations et prévisions météorologiques.

Pour changer de carte: cliquez sur les boutons verts avec une croix noire pour zoomer, sur le bouton vert avec un tiret pour effectuer un zoom arrière, ou sur les flèches vertes pour les cartes adjacentes.


METAR-TAF: